createdAt,value
2022-11-01T00:05:18.315Z,98.71
2022-11-01T00:10:40.099Z,99.64
2022-11-01T00:16:01.931Z,98.21
2022-11-01T00:21:24.051Z,96.96
2022-11-01T00:26:45.991Z,96.03
2022-11-01T00:32:08.922Z,96.17
2022-11-01T00:37:30.657Z,96.56
2022-11-01T00:42:52.524Z,97.67
2022-11-01T00:48:14.232Z,98.63
2022-11-01T00:53:36.086Z,99.50
2022-11-01T00:58:57.823Z,99.26
2022-11-01T01:04:19.656Z,98.45
2022-11-01T01:09:41.397Z,99.21
2022-11-01T01:15:03.889Z,100.00
2022-11-01T01:20:25.871Z,100.00
2022-11-01T01:25:47.599Z,100.00
2022-11-01T01:31:10.255Z,99.11
2022-11-01T01:36:31.963Z,98.98
2022-11-01T01:41:56.830Z,98.10
2022-11-01T01:47:26.208Z,98.44
2022-11-01T01:53:05.897Z,97.72
2022-11-01T01:58:31.522Z,97.87
2022-11-01T02:03:53.319Z,98.53
2022-11-01T02:09:16.085Z,98.37
2022-11-01T02:14:39.722Z,98.69
2022-11-01T02:20:17.826Z,98.35
2022-11-01T02:26:10.572Z,96.11
2022-11-01T02:31:50.823Z,96.81
2022-11-01T02:37:42.437Z,97.08
2022-11-01T02:43:12.991Z,96.26
2022-11-01T02:48:35.102Z,96.75
2022-11-01T02:54:00.984Z,96.77
2022-11-01T02:59:28.332Z,97.54
2022-11-01T03:04:50.597Z,97.37
2022-11-01T03:10:13.017Z,96.17
2022-11-01T03:15:42.328Z,96.64
2022-11-01T03:21:17.152Z,96.58
2022-11-01T03:26:40.973Z,96.14
2022-11-01T03:32:04.750Z,96.43
2022-11-01T03:37:28.837Z,96.81
2022-11-01T03:42:54.602Z,97.28
2022-11-01T03:48:16.297Z,97.71
2022-11-01T03:53:37.971Z,97.91
2022-11-01T03:58:59.819Z,96.84
2022-11-01T04:04:21.559Z,94.36
2022-11-01T04:09:43.234Z,94.03
2022-11-01T04:15:24.449Z,94.74
2022-11-01T04:20:46.246Z,94.19
2022-11-01T04:26:11.845Z,92.28
2022-11-01T04:31:35.905Z,92.13
2022-11-01T04:36:57.572Z,93.77
2022-11-01T04:42:19.262Z,94.26
2022-11-01T04:47:50.763Z,94.28
2022-11-01T04:53:12.965Z,94.79
2022-11-01T04:58:39.969Z,94.74
2022-11-01T05:04:04.926Z,91.99
2022-11-01T05:09:26.605Z,90.46
2022-11-01T05:14:50.788Z,87.80
2022-11-01T05:20:16.184Z,86.37
2022-11-01T05:25:38.399Z,85.09
2022-11-01T05:31:00.251Z,82.85
2022-11-01T05:36:21.942Z,81.69
2022-11-01T05:41:43.715Z,81.70
2022-11-01T05:47:05.567Z,82.90
2022-11-01T05:52:27.265Z,87.03
2022-11-01T06:03:15.506Z,91.20
2022-11-01T06:08:37.233Z,91.83
2022-11-01T06:13:59.312Z,93.67
2022-11-01T06:19:21.041Z,93.02
2022-11-01T06:24:42.802Z,92.52
2022-11-01T06:30:05.406Z,93.48
2022-11-01T06:35:27.990Z,94.64
2022-11-01T06:40:49.662Z,95.36
2022-11-01T06:46:11.359Z,95.79
2022-11-01T06:51:33.021Z,95.23
2022-11-01T06:56:54.696Z,95.17
2022-11-01T07:02:19.506Z,95.61
2022-11-01T07:07:42.025Z,95.66
2022-11-01T07:13:05.827Z,94.64
2022-11-01T07:18:29.859Z,95.89
2022-11-01T07:23:53.976Z,96.60
2022-11-01T07:29:15.682Z,97.21
2022-11-01T07:34:37.333Z,96.54
2022-11-01T07:40:01.043Z,96.44
2022-11-01T07:45:22.885Z,95.79
2022-11-01T07:50:45.527Z,94.76
2022-11-01T07:56:07.887Z,95.58
2022-11-01T08:01:30.811Z,95.32
2022-11-01T08:06:52.589Z,96.68
2022-11-01T08:12:14.362Z,96.13
2022-11-01T08:17:36.219Z,94.32
2022-11-01T08:22:58.022Z,92.91
2022-11-01T08:28:20.870Z,90.68
2022-11-01T08:33:42.642Z,91.45
2022-11-01T08:39:04.391Z,91.29
2022-11-01T08:44:26.196Z,91.08
2022-11-01T08:49:47.893Z,91.26
2022-11-01T08:55:11.197Z,91.63
2022-11-01T09:00:32.913Z,91.62
2022-11-01T09:05:57.132Z,92.48
2022-11-01T09:11:20.561Z,91.81
2022-11-01T09:16:42.242Z,91.71
2022-11-01T09:22:03.966Z,92.23
2022-11-01T09:27:25.672Z,88.94
2022-11-01T09:32:47.351Z,88.98
2022-11-01T09:38:09.035Z,87.95
2022-11-01T09:43:35.035Z,87.90
2022-11-01T09:48:59.604Z,86.77
2022-11-01T09:54:24.093Z,84.50
2022-11-01T10:00:13.258Z,84.82
2022-11-01T10:05:52.295Z,83.81
2022-11-01T10:11:37.068Z,80.51
2022-11-01T10:17:19.840Z,82.11
2022-11-01T10:22:47.474Z,81.46
2022-11-01T10:28:19.052Z,80.40
2022-11-01T10:33:47.706Z,80.79
2022-11-01T10:39:54.345Z,80.05
2022-11-01T10:45:16.788Z,80.40
2022-11-01T10:50:38.902Z,79.19
2022-11-01T10:56:05.847Z,76.49
2022-11-01T11:01:31.536Z,77.22
2022-11-01T11:06:53.466Z,77.30
2022-11-01T11:12:19.062Z,75.57
2022-11-01T11:17:44.841Z,75.02
2022-11-01T11:23:10.511Z,74.88
2022-11-01T11:28:35.509Z,74.25
2022-11-01T11:34:02.064Z,74.37
2022-11-01T11:39:35.606Z,74.31
2022-11-01T11:45:15.462Z,73.79
2022-11-01T11:50:38.104Z,74.49
2022-11-01T11:56:02.901Z,73.88
2022-11-01T12:01:28.628Z,72.41
2022-11-01T12:06:50.472Z,72.04
2022-11-01T12:12:17.997Z,72.94
2022-11-01T12:17:46.801Z,72.36
2022-11-01T12:23:26.989Z,72.17
2022-11-01T12:28:58.505Z,72.27
2022-11-01T12:34:31.235Z,75.27
2022-11-01T12:40:18.570Z,76.45
2022-11-01T12:45:57.040Z,76.87
2022-11-01T12:51:26.089Z,77.04
2022-11-01T12:56:47.830Z,77.65
2022-11-01T13:02:28.443Z,76.95
2022-11-01T13:08:02.760Z,77.19
2022-11-01T13:13:24.429Z,77.27
2022-11-01T13:18:58.220Z,76.59
2022-11-01T13:24:39.504Z,76.53
2022-11-01T13:30:01.139Z,76.42
2022-11-01T13:35:43.281Z,76.80
2022-11-01T13:41:22.285Z,77.03
2022-11-01T13:47:11.623Z,77.88
2022-11-01T13:52:35.981Z,77.70
2022-11-01T13:57:58.523Z,79.34
2022-11-01T14:03:26.649Z,79.83
2022-11-01T14:08:49.295Z,76.98
2022-11-01T14:14:29.462Z,75.16
2022-11-01T14:19:56.885Z,77.26
2022-11-01T14:30:49.354Z,77.85
2022-11-01T14:36:13.009Z,76.98
2022-11-01T14:41:40.642Z,76.37
2022-11-01T14:47:13.963Z,75.17
2022-11-01T14:52:45.545Z,75.28
2022-11-01T14:58:08.916Z,77.17
2022-11-01T15:03:30.624Z,79.26
2022-11-01T15:08:58.011Z,79.54
2022-11-01T15:14:34.067Z,80.48
2022-11-01T15:19:58.495Z,77.40
2022-11-01T15:25:23.389Z,80.55
2022-11-01T15:30:55.192Z,81.39
2022-11-01T15:36:23.381Z,81.53
2022-11-01T15:41:46.229Z,81.02
2022-11-01T15:47:20.475Z,78.16
2022-11-01T15:52:45.788Z,77.86
2022-11-01T15:58:10.310Z,79.02
2022-11-01T16:03:40.099Z,79.92
2022-11-01T16:09:16.197Z,81.33
2022-11-01T16:14:38.207Z,82.25
2022-11-01T16:20:04.505Z,82.10
2022-11-01T16:25:28.940Z,83.05
2022-11-01T16:30:53.021Z,82.85
2022-11-01T16:36:17.781Z,83.33
2022-11-01T16:41:41.011Z,83.71
2022-11-01T16:47:05.626Z,84.05
2022-11-01T16:52:27.318Z,84.46
2022-11-01T16:57:49.008Z,84.94
2022-11-01T17:03:10.686Z,85.07
2022-11-01T17:08:33.649Z,85.31
2022-11-01T17:13:55.351Z,86.07
2022-11-01T17:19:25.110Z,85.52
2022-11-01T17:24:47.363Z,85.66
2022-11-01T17:30:09.508Z,86.08
2022-11-01T17:35:33.238Z,85.66
2022-11-01T17:40:56.725Z,86.07
2022-11-01T17:46:21.794Z,86.08
2022-11-01T17:51:43.868Z,86.73
2022-11-01T17:57:05.579Z,86.27
2022-11-01T18:02:27.511Z,87.53
2022-11-01T18:07:50.594Z,87.51
2022-11-01T18:13:37.272Z,87.95
2022-11-01T18:19:03.934Z,87.82
2022-11-01T18:24:41.017Z,88.21
2022-11-01T18:30:12.946Z,89.05
2022-11-01T18:35:41.320Z,89.84
2022-11-01T18:41:05.462Z,89.90
2022-11-01T18:46:39.701Z,90.57
2022-11-01T18:52:01.789Z,90.01
2022-11-01T18:57:24.489Z,89.87
2022-11-01T19:02:46.223Z,90.00
2022-11-01T19:08:22.259Z,89.60
2022-11-01T19:13:45.070Z,88.92
2022-11-01T19:19:14.940Z,89.67
2022-11-01T19:24:38.465Z,90.93
2022-11-01T19:30:00.252Z,90.43
2022-11-01T19:35:22.831Z,90.00
2022-11-01T19:40:44.663Z,88.65
2022-11-01T19:46:13.463Z,89.17
2022-11-01T19:51:35.413Z,90.19
2022-11-01T19:56:59.439Z,90.20
2022-11-01T20:02:23.083Z,88.58
2022-11-01T20:07:44.907Z,86.51
2022-11-01T20:13:06.867Z,85.50
2022-11-01T20:18:28.746Z,84.91
2022-11-01T20:23:50.719Z,85.33
2022-11-01T20:29:12.615Z,85.62
2022-11-01T20:34:34.355Z,84.38
2022-11-01T20:39:56.779Z,83.63
2022-11-01T20:45:18.802Z,83.58
2022-11-01T20:50:40.612Z,82.92
2022-11-01T20:56:03.786Z,83.22
2022-11-01T21:01:28.078Z,82.69
2022-11-01T21:06:58.849Z,83.02
2022-11-01T21:12:39.290Z,82.65
2022-11-01T21:18:07.201Z,82.34
2022-11-01T21:24:11.836Z,82.67
2022-11-01T21:29:47.036Z,83.42
2022-11-01T21:35:20.703Z,84.39
2022-11-01T21:40:45.040Z,85.85
2022-11-01T21:46:15.755Z,86.29
2022-11-01T21:51:37.582Z,86.32
2022-11-01T21:56:59.952Z,86.55
2022-11-01T22:02:21.899Z,87.42
2022-11-01T22:07:43.908Z,88.20
2022-11-01T22:13:06.926Z,88.11
2022-11-01T22:18:28.958Z,87.89
2022-11-01T22:23:50.838Z,87.53
2022-11-01T22:29:12.543Z,87.04
2022-11-01T22:34:34.260Z,88.05
2022-11-01T22:39:55.940Z,87.12
2022-11-01T22:45:18.476Z,87.75
2022-11-01T22:50:40.231Z,88.36
2022-11-01T22:56:02.093Z,88.70
2022-11-01T23:01:27.986Z,89.15
2022-11-01T23:06:53.946Z,88.18
2022-11-01T23:12:42.434Z,86.52
2022-11-01T23:18:12.969Z,87.89
2022-11-01T23:23:41.750Z,89.91
2022-11-01T23:29:03.449Z,90.25
2022-11-01T23:34:25.605Z,88.88
2022-11-01T23:39:47.371Z,87.89
2022-11-01T23:45:33.888Z,87.10
2022-11-01T23:50:56.508Z,88.96
2022-11-01T23:56:19.846Z,89.05
